Latest Weather Observations for Gove Airport

IDD60801

Issued at 6:05 pm CST Wednesday 27 August 2014 (issued every 30 minutes, with the page automatically refreshed every 10 minutes)

About weather observations | Map of weather stations | Latest weather observations for NT | Other Formats
Station Details ID: 014508 Name: GOVE AIRPORT Lat: -12.27 Lon: 136.82 Height: 51.6 m
Data from the previous 72 hours. | See also: Recent months at Gove Airport
Date/Time
CST
Temp
°C
App
Temp
°C
Dew
Point
Rel
Hum
%
Delta-T
°C
Wind Press
QNH
hPa
Press
MSL
hPa
Rain
since 9 am
mm
Dir
 
Spd
km/h
Gust
km/h
Spd
kts
Gust
kts
27/05:30pm 24.3 23.1 18.5 70 3.7 SSE 22 35 12 19 1013.1 - 0.0
27/05:00pm 24.9 23.0 18.6 68 4.0 SE 26 35 14 19 1012.9 - 0.0
27/04:30pm 25.2 23.3 18.6 67 4.2 SSE 26 35 14 19 1012.8 - 0.0
27/04:00pm 26.9 24.9 18.3 59 5.5 SSE 26 35 14 19 1012.6 - 0.0
27/03:30pm 27.3 25.1 17.8 56 6.0 SE 26 37 14 20 1012.6 - 0.0
27/03:00pm 26.7 25.0 18.0 59 5.5 ESE 24 35 13 19 1012.5 1012.2 0.0
27/02:30pm 27.8 26.1 18.1 55 6.2 SE 24 28 13 15 1012.8 - 0.0
27/02:00pm 27.3 24.7 17.8 56 6.0 ESE 28 37 15 20 1012.9 - 0.0
27/01:30pm 27.2 24.6 17.7 56 6.0 SSE 28 39 15 21 1013.2 - 0.0
27/01:00pm 27.2 24.5 17.5 55 6.1 SSE 28 41 15 22 1013.5 - 0.0
27/12:30pm 27.1 24.3 17.4 55 6.1 SE 28 41 15 22 1013.6 - 0.0
27/12:00pm 27.2 23.9 17.0 53 6.4 SE 30 41 16 22 1013.9 1013.6 0.0
27/11:30am 26.4 23.0 16.7 55 6.0 SE 30 44 16 24 1014.3 - 0.0
27/11:00am 27.3 23.1 16.3 51 6.8 SE 33 46 18 25 1014.6 - 0.0
27/10:30am 27.3 23.6 15.9 49 7.0 SE 30 43 16 23 1014.7 - 0.0
27/10:00am 27.1 22.7 15.1 47 7.3 SE 32 46 17 25 1014.9 - 0.0
27/09:45am 27.2 23.0 14.6 46 7.6 ESE 30 48 16 26 1015.0 - 0.0
27/09:30am 26.8 22.2 14.7 47 7.3 SE 32 44 17 24 1015.1 - 0.0
27/09:00am 26.0 22.6 14.7 49 6.8 SE 26 37 14 20 1015.1 1014.9 0.0
27/08:30am 25.0 23.5 16.4 59 5.3 SE 19 28 10 15 1014.9 - 0.0
27/08:00am 23.4 23.1 16.5 65 4.2 SSE 13 17 7 9 1014.7 - 0.0
27/07:30am 20.6 21.2 16.8 79 2.3 SSE 9 13 5 7 1014.4 - 0.0
27/07:00am 16.9 17.0 15.4 91 0.9 SE 9 11 5 6 1014.1 - 0.0
27/06:30am 15.3 15.2 13.9 91 0.8 SE 7 9 4 5 1013.7 - 0.0
27/06:00am 16.2 15.5 14.3 88 1.1 S 11 13 6 7 1013.3 1013.0 0.0
27/05:30am 14.9 14.7 13.7 92 0.7 SSE 7 9 4 5 1013.1 - 0.0
27/05:00am 15.5 15.5 14.1 91 0.8 S 7 9 4 5 1012.9 - 0.0
27/04:30am 16.3 16.5 14.6 90 1.0 S 7 9 4 5 1012.9 - 0.0
27/04:00am 18.3 18.2 15.9 86 1.4 S 11 13 6 7 1012.9 - 0.0
27/03:50am 18.1 18.0 16.1 88 1.2 S 11 13 6 7 1013.0 - 0.0
27/03:30am 18.8 18.8 16.3 85 1.5 S 11 15 6 8 1013.1 - 0.0
27/03:00am 18.3 18.8 16.5 89 1.1 SSE 9 11 5 6 1013.2 1012.9 0.0
27/02:30am 18.7 19.9 16.9 89 1.1 ESE 6 7 3 4 1013.5 - 0.0
27/02:00am 19.9 20.6 17.1 84 1.7 SSE 9 13 5 7 1013.9 - 0.0
27/01:30am 20.9 21.4 17.5 81 2.1 SSE 11 15 6 8 1014.1 - 0.0
27/01:00am 21.5 21.6 17.4 77 2.5 SSE 13 17 7 9 1014.3 - 0.0
27/12:30am 21.9 21.6 17.4 75 2.8 SSE 15 22 8 12 1014.3 - 0.0
27/12:00am 22.0 21.7 17.3 74 2.9 SSE 15 24 8 13 1014.5 1014.2 0.0
 
Date/Time
CST
Temp
°C
App
Temp
°C
Dew
Point
Rel
Hum
%
Delta-T
°C
Wind Press
QNH
hPa
Press
MSL
hPa
Rain
since 9 am
mm
Dir
 
Spd
km/h
Gust
km/h
Spd
kts
Gust
kts
26/11:30pm 22.2 21.5 17.3 74 3.0 SSE 17 24 9 13 1014.6 - 0.0
26/11:00pm 22.4 21.3 17.7 75 2.9 SSE 20 28 11 15 1014.6 - 0.0
26/10:30pm 22.7 21.6 17.7 73 3.1 SSE 20 30 11 16 1014.7 - 0.0
26/10:00pm 22.8 21.7 17.8 73 3.1 SE 20 28 11 15 1014.7 - 0.0
26/09:30pm 23.1 22.1 17.6 71 3.4 SE 19 24 10 13 1014.6 - 0.0
26/09:00pm 23.4 23.3 19.5 79 2.5 SE 19 33 10 18 1014.5 1014.2 0.0
26/08:30pm 22.8 24.1 20.2 85 1.7 SE 13 17 7 9 1014.2 - 0.0
26/08:00pm 22.7 24.1 20.4 87 1.5 SSE 13 20 7 11 1013.8 - 0.0
26/07:30pm 22.6 23.9 20.1 86 1.6 SSE 13 17 7 9 1013.6 - 0.0
26/07:00pm 22.9 23.7 19.8 83 2.0 SSE 15 19 8 10 1013.2 - 0.0
26/06:30pm 23.2 23.5 19.5 80 2.4 SSE 17 26 9 14 1013.0 - 0.0
26/06:00pm 23.8 23.4 19.3 76 2.9 SSE 20 32 11 17 1012.7 1012.4 0.0
26/05:30pm 24.4 23.3 18.7 70 3.6 SSE 22 33 12 18 1012.5 - 0.0
26/05:00pm 25.0 24.3 18.7 68 4.0 SSE 20 30 11 16 1012.4 - 0.0
26/04:30pm 25.8 25.3 18.6 64 4.6 SSE 19 24 10 13 1012.1 - 0.0
26/04:00pm 26.2 25.0 18.3 61 5.0 SSE 22 30 12 16 1012.2 - 0.0
26/03:30pm 27.1 25.7 18.0 57 5.8 SSE 22 32 12 17 1012.2 - 0.0
26/03:00pm 27.3 24.3 16.7 52 6.6 SE 28 39 15 21 1012.2 1011.9 0.0
26/02:30pm 27.0 25.0 17.3 55 6.1 SSE 24 39 13 21 1012.2 - 0.0
26/02:00pm 27.7 26.1 16.6 50 6.9 SSE 20 30 11 16 1012.6 - 0.0
26/01:30pm 28.4 25.4 15.9 46 7.7 SE 26 32 14 17 1012.8 - 0.0
26/01:00pm 27.6 25.2 16.5 50 6.9 SE 24 35 13 19 1013.2 - 0.0
26/12:30pm 28.0 24.6 15.8 47 7.5 SSE 28 37 15 20 1013.7 - 0.0
26/12:00pm 27.4 24.0 15.8 49 7.1 SE 28 43 15 23 1014.2 1013.9 0.0
26/11:30am 27.5 23.5 15.2 47 7.5 SE 30 39 16 21 1014.4 - 0.0
26/11:00am 27.1 22.7 14.0 44 7.8 SE 30 46 16 25 1014.8 - 0.0
26/10:30am 27.0 21.8 13.5 43 8.0 SSE 33 41 18 22 1015.0 - 0.0
26/10:00am 26.9 22.8 13.7 44 7.8 SSE 28 39 15 21 1015.2 - 0.0
26/09:30am 26.7 23.4 14.1 46 7.5 SE 24 35 13 19 1015.2 - 0.0
26/09:00am 25.9 22.9 14.7 50 6.7 SSE 24 32 13 17 1015.0 1014.8 0.0
26/08:30am 25.4 23.6 15.5 54 6.0 SSE 19 26 10 14 1014.8 - 0.0
26/08:00am 23.5 24.3 17.2 67 3.9 SSE 9 15 5 8 1014.6 - 0.0
26/07:30am 20.9 21.7 17.3 80 2.2 SSE 9 11 5 6 1014.5 - 0.0
26/07:00am 18.9 19.6 17.1 89 1.1 SE 9 11 5 6 1014.1 - 0.0
26/06:50am 18.7 19.3 16.7 88 1.2 SE 9 11 5 6 1013.9 - 0.0
26/06:30am 17.8 19.0 16.8 94 0.6 SSE 6 7 3 4 1013.8 - 0.0
26/06:00am 19.3 20.1 17.3 88 1.2 SSE 9 11 5 6 1013.3 1013.0 0.0
26/05:30am 19.0 20.1 17.9 93 0.7 SSE 9 9 5 5 1013.1 - 0.0
26/05:00am 18.8 21.5 17.8 94 0.6 CALM 0 0 0 0 1013.0 - 0.0
26/04:30am 19.7 21.3 18.3 92 0.9 SE 7 7 4 4 1012.9 - 0.0
26/04:00am 20.0 21.8 18.7 92 0.8 SSE 7 9 4 5 1012.9 - 0.0
26/03:44am 20.4 22.5 19.3 93 0.7 SSE 7 11 4 6 1012.9 - 0.0
26/03:30am 20.6 22.8 19.5 93 0.7 SSE 7 9 4 5 1012.9 - 0.0
26/03:20am 20.8 23.0 19.5 92 0.8 SSE 7 11 4 6 1012.9 - 0.0
26/03:00am 21.0 22.4 19.6 92 0.9 SSE 11 15 6 8 1013.1 1012.8 0.0
26/02:30am 21.5 22.9 19.6 89 1.2 SSE 11 15 6 8 1013.3 - 0.0
26/02:12am 22.0 22.6 19.5 86 1.6 SE 15 19 8 10 1013.4 - 0.0
26/02:00am 22.1 23.1 19.4 85 1.7 SSE 13 19 7 10 1013.4 - 0.0
26/01:55am 22.2 22.8 19.5 85 1.7 SSE 15 20 8 11 1013.5 - 0.0
26/01:30am 22.5 23.5 19.5 83 1.9 SE 13 19 7 10 1013.8 - 0.0
26/01:00am 22.6 22.9 19.5 82 2.0 SE 17 24 9 13 1014.0 - 0.0
26/12:30am 22.6 22.9 19.6 83 1.9 SE 17 22 9 12 1014.3 - 0.0
26/12:19am 22.8 23.1 19.7 83 2.0 SE 17 22 9 12 1014.4 - 0.0
26/12:00am 22.9 23.8 20.0 84 1.9 SE 15 22 8 12 1014.6 1014.4 0.0
 
Date/Time
CST
Temp
°C
App
Temp
°C
Dew
Point
Rel
Hum
%
Delta-T
°C
Wind Press
QNH
hPa
Press
MSL
hPa
Rain
since 9 am
mm
Dir
 
Spd
km/h
Gust
km/h
Spd
kts
Gust
kts
25/11:40pm 23.0 23.6 20.2 84 1.8 SE 17 22 9 12 1014.7 - 0.0
25/11:30pm 22.9 23.0 20.0 84 1.9 SSE 19 26 10 14 1014.7 - 0.0
25/11:00pm 22.9 23.3 19.8 83 2.0 SE 17 24 9 13 1015.0 - 0.0
25/10:30pm 22.7 23.0 19.7 83 1.9 SE 17 26 9 14 1015.0 - 0.0
25/10:00pm 22.6 22.9 19.5 82 2.0 SSE 17 24 9 13 1014.9 - 0.0
25/09:30pm 22.5 22.5 19.0 80 2.2 SSE 17 24 9 13 1014.9 - 0.0
25/09:00pm 22.4 22.4 18.9 80 2.2 SSE 17 22 9 12 1014.8 1014.6 0.0
25/08:30pm 22.3 23.0 18.8 80 2.2 SSE 13 19 7 10 1014.8 - 0.0
25/08:05pm 22.3 22.5 18.6 79 2.3 SE 15 20 8 11 1014.8 - 0.0
25/08:00pm 22.3 22.9 18.6 79 2.3 SE 13 19 7 10 1014.8 - 0.0
25/07:30pm 22.7 22.5 18.6 77 2.6 SSE 17 24 9 13 1014.6 - 0.0
25/07:00pm 22.8 22.0 18.5 77 2.7 SSE 20 32 11 17 1014.2 - 0.0
25/06:55pm 22.8 22.2 18.5 77 2.7 SSE 19 24 10 13 1014.2 - 0.0
25/06:37pm 22.9 22.1 18.5 76 2.8 SSE 20 28 11 15 1014.1 - 0.0
25/06:30pm 23.0 22.1 18.2 74 3.0 SSE 20 28 11 15 1014.1 - 0.0
25/06:00pm 23.5 21.8 18.1 71 3.4 SSE 24 43 13 23 1013.9 1013.6 0.0
25/05:30pm 24.0 21.8 17.8 68 3.9 SSE 26 39 14 21 1013.8 - 0.0
25/05:13pm 24.3 21.6 17.6 66 4.2 SSE 28 46 15 25 1013.7 - 0.0
25/05:00pm 25.0 21.8 17.3 62 4.8 SSE 30 44 16 24 1013.6 - 0.0
25/04:30pm 25.9 23.2 16.5 56 5.8 SSE 26 35 14 19 1013.3 - 0.0
25/04:00pm 25.8 22.6 16.4 56 5.8 SSE 28 37 15 20 1013.2 - 0.0
25/03:30pm 26.5 23.0 15.5 50 6.7 SSE 28 41 15 22 1013.1 - 0.0
25/03:00pm 27.1 23.4 15.1 47 7.3 SSE 28 43 15 23 1013.2 1012.9 0.0
25/02:30pm 27.7 23.8 15.4 47 7.5 SSE 30 43 16 23 1013.5 - 0.0
25/02:13pm 26.9 23.4 15.4 49 7.0 SSE 28 46 15 25 1013.6 - 0.0
25/02:00pm 26.9 22.5 15.2 48 7.1 SSE 32 39 17 21 1013.8 - 0.0
25/01:33pm 27.5 23.7 14.8 45 7.7 SSE 28 46 15 25 1014.1 - 0.0
25/01:30pm 27.4 23.4 15.2 47 7.4 SSE 30 46 16 25 1014.2 - 0.0
25/01:00pm 28.2 24.6 15.3 45 7.9 SSE 28 43 15 23 1014.5 - 0.0
25/12:50pm 27.9 23.4 14.9 45 7.9 SSE 32 48 17 26 1014.6 - 0.0
25/12:30pm 28.1 23.9 14.7 44 8.1 SE 30 48 16 26 1014.8 - 0.0
25/12:24pm 27.8 23.7 14.9 45 7.8 SE 30 43 16 23 1014.9 - 0.0
25/12:00pm 28.0 23.9 15.0 45 7.9 SE 30 41 16 22 1015.2 1015.0 0.0
25/11:30am 28.1 23.1 14.1 42 8.4 SE 33 46 18 25 1015.5 - 0.0
25/11:00am 27.5 22.5 13.5 42 8.3 SSE 32 46 17 25 1015.9 - 0.0
25/10:30am 27.7 22.9 14.0 43 8.2 SE 32 52 17 28 1016.2 - 0.0
25/10:23am 27.3 22.0 13.2 41 8.3 SE 33 52 18 28 1016.2 - 0.0
25/10:00am 27.2 22.7 15.0 47 7.4 SSE 32 48 17 26 1016.3 - 0.0
25/09:55am 27.4 23.9 15.4 48 7.3 SSE 28 46 15 25 1016.3 - 0.0
25/09:30am 26.4 23.4 16.9 56 5.9 SSE 28 44 15 24 1016.2 - 0.0
25/09:00am 26.0 23.9 17.2 58 5.5 SSE 24 33 13 18 1016.1 1015.9 0.0
25/08:30am 25.3 24.7 18.5 66 4.3 SSE 19 28 10 15 1015.8 - 0.0
25/08:00am 23.5 25.0 20.6 84 1.9 SSE 13 17 7 9 1015.8 - 0.0
25/07:30am 21.8 24.4 21.2 96 0.4 SSE 9 13 5 7 1015.4 - 0.0
25/06:58am 20.5 22.8 19.9 96 0.4 E 7 9 4 5 1014.9 - 0.0
25/06:30am 20.0 21.8 19.5 97 0.3 SE 9 9 5 5 1014.5 - 0.0
25/06:00am 20.3 22.5 19.7 96 0.4 SE 7 11 4 6 1014.4 1014.1 0.0
25/05:30am 20.5 22.8 19.9 96 0.4 ESE 7 9 4 5 1014.2 - 0.0
25/05:17am 20.6 22.2 20.0 96 0.4 SE 11 13 6 7 1014.0 - 0.0
25/05:00am 20.8 22.9 20.2 96 0.4 ESE 9 11 5 6 1014.0 - 0.0
25/04:30am 20.9 23.6 20.3 96 0.4 SSE 6 7 3 4 1013.6 - 0.0
25/04:00am 21.1 23.6 20.2 95 0.6 ESE 7 11 4 6 1013.7 - 0.0
25/03:30am 21.3 23.4 20.2 93 0.7 S 9 11 5 6 1013.8 - 0.0
25/03:00am 21.5 23.7 20.3 93 0.8 SSE 9 11 5 6 1014.1 1013.8 0.0
25/02:30am 21.8 24.0 20.4 92 0.9 SSE 9 15 5 8 1014.4 - 0.0
25/02:00am 21.9 23.7 20.4 91 1.0 SSE 11 17 6 9 1014.5 - 0.0
25/01:30am 21.9 24.1 20.5 92 0.9 S 9 13 5 7 1014.7 - 0.0
25/01:00am 21.9 23.7 20.4 91 1.0 SSE 11 17 6 9 1014.9 - 0.0
25/12:30am 22.0 23.9 20.5 91 1.0 SSE 11 15 6 8 1015.2 - 0.0
25/12:00am 22.0 23.9 20.6 92 0.9 SSE 11 15 6 8 1015.4 1015.2 0.0
 
Date/Time
CST
Temp
°C
App
Temp
°C
Dew
Point
Rel
Hum
%
Delta-T
°C
Wind Press
QNH
hPa
Press
MSL
hPa
Rain
since 9 am
mm
Dir
 
Spd
km/h
Gust
km/h
Spd
kts
Gust
kts
24/11:58pm 22.1 24.0 20.6 91 1.0 SSE 11 15 6 8 1015.5 - 0.0
24/11:30pm 22.3 24.3 20.8 91 1.0 SSE 11 17 6 9 1015.6 - 0.0
24/11:00pm 22.6 24.3 20.9 90 1.1 SE 13 20 7 11 1015.6 - 0.0
24/10:54pm 22.6 24.4 21.1 91 1.0 SSE 13 17 7 9 1015.7 - 0.0
24/10:30pm 22.6 24.9 21.4 93 0.8 SSE 11 15 6 8 1015.8 - 0.0
24/10:15pm 22.6 25.2 21.2 92 0.9 SE 9 13 5 7 1015.8 - 0.0
24/10:12pm 22.6 25.2 21.2 92 0.9 ESE 9 13 5 7 1015.8 - 0.0
24/10:04pm 22.6 24.8 21.2 92 0.9 SSE 11 15 6 8 1015.8 - 0.0
24/10:00pm 22.6 24.9 21.4 93 0.8 SSE 11 15 6 8 1015.7 - 0.0
24/09:30pm 23.1 25.0 21.4 90 1.1 SSE 13 17 7 9 1015.8 - 0.0
24/09:00pm 23.1 25.9 21.6 91 1.0 SE 9 13 5 7 1015.5 1015.3 0.0
24/08:30pm 23.4 25.8 21.6 90 1.2 SE 11 17 6 9 1015.4 - 0.0
24/08:00pm 23.6 26.0 21.5 88 1.4 ESE 11 15 6 8 1015.1 - 0.0
24/07:30pm 23.8 26.2 21.5 87 1.5 SE 11 19 6 10 1014.8 - 0.0
24/07:00pm 24.2 26.1 21.3 84 1.9 SE 13 20 7 11 1014.6 - 0.0
24/06:30pm 24.5 25.9 21.0 81 2.3 SE 15 19 8 10 1014.1 - 0.0

Other Formats:

Comma delimited format used in spreadsheet applications
http://www.bom.gov.au/fwo/IDD60801/IDD60801.94150.axf

JavaScript Object Notation format (JSON) in row-major order
http://www.bom.gov.au/fwo/IDD60801/IDD60801.94150.json